createdAt,value
2018-06-24T00:00:16.296Z,65.01
2018-06-24T00:00:42.430Z,64.85
2018-06-24T00:01:08.570Z,64.85
2018-06-24T00:01:34.714Z,64.63
2018-06-24T00:02:00.881Z,64.85
2018-06-24T00:02:27.022Z,65.11
2018-06-24T00:02:53.178Z,64.85
2018-06-24T00:03:19.311Z,64.92
2018-06-24T00:03:45.453Z,65.01
2018-06-24T00:04:11.593Z,65.01
2018-06-24T00:04:37.734Z,65.39
2018-06-24T00:05:03.872Z,65.39
2018-06-24T00:05:30.020Z,65.78
2018-06-24T00:05:56.149Z,65.39
2018-06-24T00:06:22.317Z,65.78
2018-06-24T00:06:48.454Z,64.82
2018-06-24T00:07:14.599Z,65.11
2018-06-24T00:07:40.742Z,65.11
2018-06-24T00:08:06.876Z,65.59
2018-06-24T00:08:33.016Z,65.39
2018-06-24T00:08:59.159Z,65.49
2018-06-24T00:09:25.296Z,65.88
2018-06-24T00:09:51.440Z,65.39
2018-06-24T00:10:17.630Z,65.39
2018-06-24T00:10:43.793Z,65.88
2018-06-24T00:11:09.963Z,66.16
2018-06-24T00:11:36.100Z,65.68
2018-06-24T00:12:02.235Z,65.59
2018-06-24T00:12:28.375Z,66.26
2018-06-24T00:12:54.520Z,66.06
2018-06-24T00:13:20.682Z,66.26
2018-06-24T00:13:46.869Z,65.78
2018-06-24T00:14:12.991Z,66.16
2018-06-24T00:14:39.089Z,66.16
2018-06-24T00:15:05.253Z,65.59
2018-06-24T00:15:31.438Z,65.2
2018-06-24T00:15:57.551Z,65.78
2018-06-24T00:16:23.710Z,65.88
2018-06-24T00:16:49.822Z,65.68
2018-06-24T00:17:15.958Z,65.97
2018-06-24T00:17:42.122Z,66.26
2018-06-24T00:18:08.235Z,66.74
2018-06-24T00:18:34.402Z,66.35
2018-06-24T00:19:00.544Z,66.26
2018-06-24T00:19:26.682Z,66.45
2018-06-24T00:19:52.817Z,66.55
2018-06-24T00:20:18.960Z,66.55
2018-06-24T00:20:45.107Z,66.45
2018-06-24T00:21:11.273Z,66.55
2018-06-24T00:21:37.452Z,66.06
2018-06-24T00:22:03.586Z,66.55
2018-06-24T00:22:29.756Z,66.83
2018-06-24T00:22:55.929Z,66.99
2018-06-24T00:23:22.068Z,66.83
2018-06-24T00:23:48.228Z,66.74
2018-06-24T00:24:14.398Z,66.61
2018-06-24T00:24:40.539Z,66.93
2018-06-24T00:25:06.695Z,66.64
2018-06-24T00:25:32.834Z,66.61
2018-06-24T00:25:58.974Z,66.64
2018-06-24T00:26:25.116Z,66.71
2018-06-24T00:26:51.263Z,66.93
2018-06-24T00:27:17.404Z,66.64
2018-06-24T00:27:43.547Z,67.47
2018-06-24T00:28:09.684Z,67.66
2018-06-24T00:28:35.820Z,67.28
2018-06-24T00:29:01.983Z,67.09
2018-06-24T00:29:28.121Z,67.38
2018-06-24T00:29:54.265Z,67.57
2018-06-24T00:30:20.419Z,67.28
2018-06-24T00:30:46.559Z,67.38
2018-06-24T00:31:12.719Z,67.66
2018-06-24T00:31:38.858Z,67.85
2018-06-24T00:32:05.000Z,67.95
2018-06-24T00:32:31.138Z,68.33
2018-06-24T00:32:57.270Z,68.52
2018-06-24T00:33:23.414Z,68.33
2018-06-24T00:33:49.580Z,68.05
2018-06-24T00:34:15.739Z,68.43
2018-06-24T00:34:41.890Z,68.14
2018-06-24T00:35:08.027Z,68.52
2018-06-24T00:35:34.198Z,68.52
2018-06-24T00:36:00.339Z,68.43
2018-06-24T00:36:26.504Z,68.43
2018-06-24T00:36:52.707Z,68.14
2018-06-24T00:37:18.842Z,68.43
2018-06-24T00:37:44.979Z,68.33
2018-06-24T00:38:11.136Z,68.24
2018-06-24T00:38:37.302Z,68.43
2018-06-24T00:39:03.443Z,68.14
2018-06-24T00:39:29.584Z,68.43
2018-06-24T00:39:55.741Z,68.24
2018-06-24T00:40:21.880Z,68.43
2018-06-24T00:40:48.042Z,68.62
2018-06-24T00:41:14.181Z,69.01
2018-06-24T00:41:40.365Z,68.81
2018-06-24T00:42:06.505Z,69.01
2018-06-24T00:42:32.643Z,69.39
2018-06-24T00:42:58.781Z,69.2
2018-06-24T00:43:24.917Z,69.48
2018-06-24T00:43:51.062Z,69.29
2018-06-24T00:44:20.366Z,69.29
2018-06-24T00:44:46.537Z,69.1
2018-06-24T00:45:12.701Z,69.54
2018-06-24T00:45:38.843Z,69.26
2018-06-24T00:46:04.984Z,69.26
2018-06-24T00:46:31.151Z,69.58
2018-06-24T00:46:57.289Z,69.74
2018-06-24T00:47:23.463Z,69.45
2018-06-24T00:47:49.601Z,69.45
2018-06-24T00:48:15.739Z,69.54
2018-06-24T00:48:41.882Z,69.83
2018-06-24T00:49:08.025Z,69.54
2018-06-24T00:49:34.169Z,69.54
2018-06-24T00:50:00.308Z,69.45
2018-06-24T00:50:26.453Z,69.45
2018-06-24T00:50:52.616Z,69.26
2018-06-24T00:51:18.758Z,69.64
2018-06-24T00:51:44.897Z,69.64
2018-06-24T00:52:11.040Z,69.07
2018-06-24T00:52:37.202Z,69.17
2018-06-24T00:53:03.333Z,69.39
2018-06-24T00:53:29.498Z,69.07
2018-06-24T00:53:55.663Z,69.17
2018-06-24T00:54:21.802Z,68.68
2018-06-24T00:54:47.959Z,68.68
2018-06-24T00:55:14.100Z,68.97
2018-06-24T00:55:40.240Z,69.2
2018-06-24T00:56:06.398Z,69.1
2018-06-24T00:56:32.537Z,69.1
2018-06-24T00:56:58.672Z,69.39
2018-06-24T00:57:24.815Z,68.68
2018-06-24T00:57:50.945Z,68.81
2018-06-24T00:58:17.110Z,68.91
2018-06-24T00:58:43.247Z,68.52
2018-06-24T00:59:09.413Z,68.91
2018-06-24T00:59:35.549Z,68.62
2018-06-24T01:00:01.700Z,68.43
2018-06-24T01:00:27.838Z,68.43
2018-06-24T01:00:53.971Z,68.05
2018-06-24T01:01:20.102Z,68.14
2018-06-24T01:01:46.248Z,68.14
2018-06-24T01:02:12.412Z,68.33
2018-06-24T01:02:38.546Z,68.43
2018-06-24T01:03:04.712Z,68.33
2018-06-24T01:03:30.849Z,68.14
2018-06-24T01:03:57.015Z,68.14
2018-06-24T01:04:23.159Z,67.76
2018-06-24T01:04:49.292Z,67.76
2018-06-24T01:05:15.429Z,67.85
2018-06-24T01:05:41.585Z,68.43
2018-06-24T01:06:07.751Z,68.33
2018-06-24T01:06:33.895Z,68.21
2018-06-24T01:07:00.048Z,68.49
2018-06-24T01:07:26.187Z,68.87
2018-06-24T01:07:52.327Z,68.78
2018-06-24T01:08:18.462Z,68.97
2018-06-24T01:08:44.601Z,68.97
2018-06-24T01:09:10.792Z,68.87
2018-06-24T01:09:36.919Z,68.87
2018-06-24T01:10:03.090Z,68.81
2018-06-24T01:10:29.278Z,68.62
2018-06-24T01:10:55.417Z,68.33
2018-06-24T01:11:21.547Z,67.95
2018-06-24T01:11:47.688Z,68.14
2018-06-24T01:12:13.851Z,68.14
2018-06-24T01:12:39.984Z,68.49
2018-06-24T01:13:06.145Z,68.52
2018-06-24T01:13:32.304Z,68.24
2018-06-24T01:13:58.461Z,68.24
2018-06-24T01:14:24.613Z,68.33
2018-06-24T01:14:50.750Z,68.52
2018-06-24T01:15:16.888Z,68.14
2018-06-24T01:15:43.030Z,68.52
2018-06-24T01:16:09.166Z,68.24
2018-06-24T01:16:35.299Z,68.14
2018-06-24T01:17:01.437Z,68.33
2018-06-24T01:17:27.601Z,68.43
2018-06-24T01:17:53.740Z,67.95
2018-06-24T01:18:19.883Z,68.33
2018-06-24T01:18:46.016Z,68.24
2018-06-24T01:19:12.152Z,68.14
2018-06-24T01:19:38.290Z,68.33
2018-06-24T01:20:04.450Z,68.14
2018-06-24T01:20:30.593Z,68.24
2018-06-24T01:20:56.776Z,68.33
2018-06-24T01:21:22.939Z,68.05
2018-06-24T01:21:49.080Z,68.05
2018-06-24T01:22:15.216Z,68.24
2018-06-24T01:22:41.352Z,68.24
2018-06-24T01:23:07.488Z,67.95
2018-06-24T01:23:33.633Z,68.14
2018-06-24T01:23:59.768Z,67.85
2018-06-24T01:24:25.912Z,67.76
2018-06-24T01:24:52.054Z,68.33
2018-06-24T01:25:18.196Z,68.14
2018-06-24T01:25:44.331Z,68.33
2018-06-24T01:26:10.488Z,68.43
2018-06-24T01:26:36.662Z,68.33
2018-06-24T01:27:02.822Z,68.24
2018-06-24T01:27:28.962Z,68.14
2018-06-24T01:27:55.102Z,67.85
2018-06-24T01:28:21.264Z,68.05
2018-06-24T01:28:47.408Z,67.76
2018-06-24T01:29:13.547Z,68.24
2018-06-24T01:29:39.687Z,67.95
2018-06-24T01:30:05.841Z,68.14
2018-06-24T01:30:32.016Z,67.85
2018-06-24T01:30:58.184Z,67.76
2018-06-24T01:31:24.343Z,68.24
2018-06-24T01:31:50.481Z,68.33
2018-06-24T01:32:16.623Z,67.95
2018-06-24T01:32:42.787Z,68.24
2018-06-24T01:33:08.931Z,68.24
2018-06-24T01:33:35.067Z,68.33
2018-06-24T01:34:01.210Z,68.43
2018-06-24T01:34:27.342Z,67.85
2018-06-24T01:34:53.482Z,67.95
2018-06-24T01:35:19.623Z,67.47
2018-06-24T01:35:45.787Z,67.76
2018-06-24T01:36:11.921Z,67.38
2018-06-24T01:36:38.067Z,67.38
2018-06-24T01:37:04.201Z,67.76
2018-06-24T01:37:30.339Z,68.14
2018-06-24T01:37:56.475Z,67.95
2018-06-24T01:38:22.609Z,68.24
2018-06-24T01:38:48.771Z,67.95
2018-06-24T01:39:14.908Z,68.14
2018-06-24T01:39:41.048Z,68.24
2018-06-24T01:40:07.184Z,68.24
2018-06-24T01:40:33.331Z,68.43
2018-06-24T01:40:59.467Z,68.14
2018-06-24T01:41:25.634Z,68.33
2018-06-24T01:41:51.775Z,68.14
2018-06-24T01:42:17.909Z,68.43
2018-06-24T01:42:44.102Z,68.24
2018-06-24T01:43:10.275Z,68.43
2018-06-24T01:43:36.414Z,68.43
2018-06-24T01:44:02.551Z,68.14
2018-06-24T01:44:28.694Z,68.14
2018-06-24T01:44:54.829Z,68.05
2018-06-24T01:45:20.994Z,68.33
2018-06-24T01:45:47.133Z,67.95
2018-06-24T01:46:13.273Z,67.95
2018-06-24T01:46:39.433Z,67.95
2018-06-24T01:47:05.583Z,68.33
2018-06-24T01:47:31.754Z,68.14
2018-06-24T01:47:57.874Z,68.33
2018-06-24T01:48:24.010Z,67.95
2018-06-24T01:48:50.146Z,68.24
2018-06-24T01:49:16.288Z,68.05
2018-06-24T01:49:42.456Z,68.05
2018-06-24T01:50:08.600Z,68.14
2018-06-24T01:50:34.739Z,68.52
2018-06-24T01:51:00.876Z,68.24
2018-06-24T01:51:27.037Z,68.43
2018-06-24T01:51:53.172Z,68.43
2018-06-24T01:52:19.312Z,68.33
2018-06-24T01:52:45.450Z,68.43
2018-06-24T01:53:11.592Z,68.52
2018-06-24T01:53:37.729Z,68.24
2018-06-24T01:54:03.869Z,68.43
2018-06-24T01:54:30.028Z,67.95
2018-06-24T01:54:56.165Z,68.14
2018-06-24T01:55:22.305Z,68.43
2018-06-24T01:55:48.450Z,68.05
2018-06-24T01:56:14.640Z,68.14
2018-06-24T01:56:40.767Z,68.24
2018-06-24T01:57:06.902Z,67.95
2018-06-24T01:57:33.048Z,67.95
2018-06-24T01:57:59.211Z,68.33
2018-06-24T01:58:25.358Z,68.43
2018-06-24T01:58:51.498Z,68.24
2018-06-24T01:59:17.659Z,67.95
2018-06-24T01:59:43.823Z,68.33
2018-06-24T02:00:09.965Z,68.24
2018-06-24T02:00:36.101Z,67.76
2018-06-24T02:01:02.242Z,67.85
2018-06-24T02:01:28.384Z,67.95
2018-06-24T02:01:54.525Z,68.24
2018-06-24T02:02:20.653Z,68.24
2018-06-24T02:02:46.795Z,68.14
2018-06-24T02:03:12.935Z,68.24
2018-06-24T02:03:39.080Z,68.33
2018-06-24T02:04:05.218Z,68.14
2018-06-24T02:04:31.363Z,68.33
2018-06-24T02:04:57.500Z,68.43
2018-06-24T02:05:23.632Z,67.85
2018-06-24T02:05:49.772Z,67.57
2018-06-24T02:06:15.910Z,67.57
2018-06-24T02:06:42.053Z,67.57
2018-06-24T02:07:08.191Z,67.76
2018-06-24T02:07:34.332Z,67.85
2018-06-24T02:08:00.494Z,68.05
2018-06-24T02:08:26.638Z,67.85
2018-06-24T02:08:52.774Z,68.05
2018-06-24T02:09:18.937Z,67.57
2018-06-24T02:09:45.076Z,67.76
2018-06-24T02:10:11.216Z,67.57
2018-06-24T02:10:37.354Z,68.33
2018-06-24T02:11:03.518Z,68.52
2018-06-24T02:11:29.661Z,67.85
2018-06-24T02:11:55.799Z,67.76
2018-06-24T02:12:21.960Z,68.24
2018-06-24T02:12:48.100Z,68.33
2018-06-24T02:13:14.247Z,68.24
2018-06-24T02:13:40.381Z,68.52
2018-06-24T02:14:06.515Z,68.33
2018-06-24T02:14:32.664Z,68.24
2018-06-24T02:14:58.860Z,67.95
2018-06-24T02:15:24.996Z,68.52
2018-06-24T02:15:51.138Z,68.62
2018-06-24T02:16:17.269Z,68.91
2018-06-24T02:16:43.460Z,68.91
2018-06-24T02:17:09.597Z,68.81
2018-06-24T02:17:35.737Z,68.62
2018-06-24T02:18:01.880Z,69.01
2018-06-24T02:18:28.036Z,68.52
2018-06-24T02:18:54.166Z,68.91
2018-06-24T02:19:20.302Z,69.1
2018-06-24T02:19:46.438Z,69.48
2018-06-24T02:20:12.603Z,68.81
2018-06-24T02:20:38.740Z,68.68
2018-06-24T02:21:04.887Z,68.62
2018-06-24T02:21:31.025Z,68.68
2018-06-24T02:21:57.188Z,68.78
2018-06-24T02:22:23.330Z,68.68
2018-06-24T02:22:49.464Z,69.1
2018-06-24T02:23:15.606Z,68.97
2018-06-24T02:23:41.763Z,69.35
2018-06-24T02:24:07.904Z,68.97
2018-06-24T02:24:34.037Z,69.45
2018-06-24T02:25:00.197Z,69.58
2018-06-24T02:25:26.334Z,68.72
2018-06-24T02:25:52.498Z,69.17
2018-06-24T02:26:18.650Z,69.48
2018-06-24T02:26:44.835Z,69.2
2018-06-24T02:27:10.920Z,69.35
2018-06-24T02:27:37.066Z,69.17
2018-06-24T02:28:03.202Z,69.17
2018-06-24T02:28:29.343Z,69.35
2018-06-24T02:28:55.483Z,69.39
2018-06-24T02:29:21.627Z,68.72
2018-06-24T02:29:47.766Z,69.48
2018-06-24T02:30:13.907Z,68.72
2018-06-24T02:30:40.089Z,68.91
2018-06-24T02:31:06.250Z,68.81
2018-06-24T02:31:32.414Z,68.97
2018-06-24T02:31:58.572Z,68.81
2018-06-24T02:32:24.775Z,69.2
2018-06-24T02:32:50.914Z,68.91
2018-06-24T02:33:17.049Z,68.91
2018-06-24T02:33:43.235Z,68.72
2018-06-24T02:34:09.401Z,69.1
2018-06-24T02:34:35.536Z,69.29
2018-06-24T02:35:01.682Z,69.29
2018-06-24T02:35:27.832Z,69.07
2018-06-24T02:35:54.002Z,69.93
2018-06-24T02:36:20.188Z,69.35
2018-06-24T02:36:46.322Z,70.21
2018-06-24T02:37:12.459Z,70.03
2018-06-24T02:37:38.607Z,70.03
2018-06-24T02:38:04.769Z,69.83
2018-06-24T02:38:30.959Z,69.74
2018-06-24T02:38:57.113Z,69.64
2018-06-24T02:39:23.258Z,69.93
2018-06-24T02:39:49.393Z,69.93
2018-06-24T02:40:15.537Z,69.77
2018-06-24T02:40:41.668Z,70.03
2018-06-24T02:41:07.836Z,69.83
2018-06-24T02:41:34.073Z,69.64
2018-06-24T02:42:00.228Z,69.83
2018-06-24T02:42:26.360Z,70.15
2018-06-24T02:42:52.496Z,70.15
2018-06-24T02:43:18.634Z,69.74
2018-06-24T02:43:44.804Z,70.03
2018-06-24T02:44:10.991Z,70.31
2018-06-24T02:44:37.149Z,69.83
2018-06-24T02:45:03.314Z,70.12
2018-06-24T02:45:29.453Z,69.83
2018-06-24T02:45:55.611Z,69.93
2018-06-24T02:46:21.772Z,69.74
2018-06-24T02:46:47.952Z,69.74
2018-06-24T02:47:14.135Z,70.03
2018-06-24T02:47:40.282Z,69.74
2018-06-24T02:48:06.470Z,69.83
2018-06-24T02:48:32.646Z,69.83
2018-06-24T02:48:58.815Z,69.77
2018-06-24T02:49:24.972Z,69.93
2018-06-24T02:49:51.115Z,70.12
2018-06-24T02:50:17.253Z,70.03
2018-06-24T02:50:43.390Z,69.26
2018-06-24T02:51:09.555Z,69.74
2018-06-24T02:51:35.740Z,69.64
2018-06-24T02:52:01.889Z,69.54
2018-06-24T02:52:28.037Z,69.58
2018-06-24T02:52:54.174Z,69.93
2018-06-24T02:53:20.317Z,69.74
2018-06-24T02:53:46.589Z,69.77
2018-06-24T02:54:12.603Z,69.68
2018-06-24T02:54:38.793Z,69.83
2018-06-24T02:55:04.981Z,69.64
2018-06-24T02:55:31.121Z,69.26
2018-06-24T02:55:57.249Z,69.64
2018-06-24T02:56:23.389Z,69.26
2018-06-24T02:56:49.587Z,69.54
2018-06-24T02:57:15.766Z,69.83
2018-06-24T02:57:41.952Z,69.54
2018-06-24T02:58:08.116Z,69.83
2018-06-24T02:58:34.283Z,69.74
2018-06-24T02:59:00.442Z,69.45
2018-06-24T02:59:26.573Z,69.45
2018-06-24T02:59:52.717Z,69.74
2018-06-24T03:00:18.876Z,69.39
2018-06-24T03:00:45.036Z,69.74
2018-06-24T03:01:11.214Z,69.74
2018-06-24T03:01:37.382Z,69.64
2018-06-24T03:02:03.515Z,70.21
2018-06-24T03:02:29.686Z,70.21
2018-06-24T03:02:55.845Z,69.68
2018-06-24T03:03:22.029Z,69.68
2018-06-24T03:03:48.196Z,70.06
2018-06-24T03:04:14.354Z,70.25
2018-06-24T03:04:40.512Z,70.25
2018-06-24T03:05:06.705Z,69.58
2018-06-24T03:05:32.866Z,69.54
2018-06-24T03:05:59.008Z,69.58
2018-06-24T03:06:25.150Z,69.54
2018-06-24T03:06:51.306Z,69.64
2018-06-24T03:07:17.447Z,70.12
2018-06-24T03:07:43.583Z,70.12
2018-06-24T03:08:09.749Z,70.03
2018-06-24T03:08:35.913Z,69.96
2018-06-24T03:09:02.060Z,69.83
2018-06-24T03:09:28.221Z,69.93
2018-06-24T03:09:54.374Z,69.74
2018-06-24T03:10:20.542Z,69.77
2018-06-24T03:10:46.682Z,70.25
2018-06-24T03:11:12.841Z,69.96
2018-06-24T03:11:39.012Z,70.03
2018-06-24T03:12:05.202Z,69.87
2018-06-24T03:12:31.366Z,69.74
2018-06-24T03:12:57.507Z,70.03
2018-06-24T03:13:23.670Z,69.93
2018-06-24T03:13:49.856Z,70.03
2018-06-24T03:14:15.984Z,70.03
2018-06-24T03:14:42.147Z,70.06
2018-06-24T03:15:08.284Z,69.83
2018-06-24T03:15:34.423Z,69.35
2018-06-24T03:16:00.559Z,70.03
2018-06-24T03:16:26.707Z,70.03
2018-06-24T03:16:52.893Z,70.6
2018-06-24T03:17:19.042Z,70.7
2018-06-24T03:17:45.178Z,70.54
2018-06-24T03:18:11.372Z,70.5
2018-06-24T03:18:37.514Z,70.5
2018-06-24T03:19:03.660Z,70.79
2018-06-24T03:19:29.799Z,70.5
2018-06-24T03:19:55.960Z,70.89
2018-06-24T03:20:22.101Z,70.83
2018-06-24T03:20:48.285Z,70.7
2018-06-24T03:21:14.447Z,70.06
2018-06-24T03:21:40.585Z,69.96
2018-06-24T03:22:06.727Z,70.03
2018-06-24T03:22:32.864Z,69.74
2018-06-24T03:22:58.999Z,69.54
2018-06-24T03:23:25.140Z,69.93
2018-06-24T03:23:51.297Z,69.45
2018-06-24T03:24:17.461Z,69.26
2018-06-24T03:24:43.604Z,69.35
2018-06-24T03:25:09.738Z,68.91
2018-06-24T03:25:35.889Z,69.48
2018-06-24T03:26:02.039Z,69.58
2018-06-24T03:26:28.179Z,69.58
2018-06-24T03:26:54.316Z,69.29
2018-06-24T03:27:20.464Z,69.58
2018-06-24T03:27:46.591Z,69.68
2018-06-24T03:28:12.732Z,69.74
2018-06-24T03:28:38.872Z,69.77
2018-06-24T03:29:05.037Z,69.39
2018-06-24T03:29:31.192Z,69.58
2018-06-24T03:29:57.325Z,69.54
2018-06-24T03:30:23.489Z,69.58
2018-06-24T03:30:49.665Z,69.48
2018-06-24T03:31:15.823Z,69.01
2018-06-24T03:31:41.985Z,69.1
2018-06-24T03:32:08.192Z,69.2
2018-06-24T03:32:34.330Z,69.29
2018-06-24T03:33:00.500Z,69.29
2018-06-24T03:33:26.643Z,69.29
2018-06-24T03:33:52.786Z,69.01
2018-06-24T03:34:18.929Z,69.29
2018-06-24T03:34:45.063Z,69.1
2018-06-24T03:35:11.242Z,69.29
2018-06-24T03:35:37.378Z,69.39
2018-06-24T03:36:03.519Z,69.39
2018-06-24T03:36:29.661Z,69.39
2018-06-24T03:36:55.795Z,69.29
2018-06-24T03:37:21.935Z,69.01
2018-06-24T03:37:48.073Z,69.1
2018-06-24T03:38:14.206Z,69.2
2018-06-24T03:38:40.344Z,69.1
2018-06-24T03:39:06.476Z,69.29
2018-06-24T03:39:32.608Z,69.2
2018-06-24T03:39:58.748Z,69.2
2018-06-24T03:40:24.915Z,69.29
2018-06-24T03:40:51.075Z,69.1
2018-06-24T03:41:17.234Z,69.1
2018-06-24T03:41:43.371Z,69.39
2018-06-24T03:42:09.506Z,69.29
2018-06-24T03:42:35.649Z,69.2
2018-06-24T03:43:01.805Z,69.2
2018-06-24T03:43:27.956Z,68.62
2018-06-24T03:43:54.094Z,69.2
2018-06-24T03:44:20.232Z,68.81
2018-06-24T03:44:46.376Z,68.81
2018-06-24T03:45:12.515Z,69.2
2018-06-24T03:45:38.664Z,69.1
2018-06-24T03:46:04.820Z,69.29
2018-06-24T03:46:30.958Z,69.48
2018-06-24T03:46:57.099Z,69.39
2018-06-24T03:47:23.235Z,69.39
2018-06-24T03:47:49.405Z,68.43
2018-06-24T03:48:15.549Z,68.72
2018-06-24T03:48:41.681Z,69.39
2018-06-24T03:49:07.866Z,69.48
2018-06-24T03:49:34.032Z,68.72
2018-06-24T03:50:00.173Z,68.91
2018-06-24T03:50:26.310Z,69.01
2018-06-24T03:50:52.473Z,68.81
2018-06-24T03:51:18.618Z,68.91
2018-06-24T03:51:44.764Z,68.91
2018-06-24T03:52:10.929Z,68.62
2018-06-24T03:52:37.062Z,68.24
2018-06-24T03:53:03.211Z,68.72
2018-06-24T03:53:29.363Z,68.72
2018-06-24T03:53:55.501Z,68.91
2018-06-24T03:54:21.636Z,68.52
2018-06-24T03:54:47.800Z,68.14
2018-06-24T03:55:13.958Z,68.24
2018-06-24T03:55:40.096Z,68.33
2018-06-24T03:56:06.232Z,68.24
2018-06-24T03:56:32.373Z,68.43
2018-06-24T03:56:58.549Z,68.14
2018-06-24T03:57:24.680Z,68.14
2018-06-24T03:57:50.823Z,68.52
2018-06-24T03:58:16.972Z,68.43
2018-06-24T03:58:43.111Z,68.52
2018-06-24T03:59:09.249Z,68.24
2018-06-24T03:59:35.389Z,68.33
2018-06-24T04:00:01.529Z,68.33
2018-06-24T04:00:27.667Z,68.14
2018-06-24T04:00:53.805Z,68.43
2018-06-24T04:01:19.938Z,68.52
2018-06-24T04:01:46.079Z,68.52
2018-06-24T04:02:12.244Z,68.33
2018-06-24T04:02:38.379Z,68.52
2018-06-24T04:03:04.518Z,68.05
2018-06-24T04:03:30.656Z,67.57
2018-06-24T04:03:56.793Z,67.89
2018-06-24T04:04:22.932Z,67.41
2018-06-24T04:04:49.162Z,67.5
2018-06-24T04:05:15.250Z,67.38
2018-06-24T04:05:41.412Z,68.46
2018-06-24T04:06:07.548Z,68.56
2018-06-24T04:06:33.716Z,68.33
2018-06-24T04:06:59.859Z,68.24
2018-06-24T04:07:25.993Z,68.46
2018-06-24T04:07:52.151Z,68.37
2018-06-24T04:08:18.290Z,68.37
2018-06-24T04:08:44.429Z,68.46
2018-06-24T04:09:10.567Z,68.37
2018-06-24T04:09:36.718Z,68.37
2018-06-24T04:10:02.856Z,68.08
2018-06-24T04:10:28.993Z,68.08
2018-06-24T04:10:55.132Z,67.99
2018-06-24T04:11:21.326Z,68.33
2018-06-24T04:11:47.518Z,68.43
2018-06-24T04:12:13.657Z,68.27
2018-06-24T04:12:39.801Z,68.24
2018-06-24T04:13:05.939Z,67.47
2018-06-24T04:13:32.081Z,67.85
2018-06-24T04:13:58.224Z,67.76
2018-06-24T04:14:24.359Z,67.57
2018-06-24T04:14:50.499Z,67.95
2018-06-24T04:15:16.637Z,68.33
2018-06-24T04:15:42.808Z,68.37
2018-06-24T04:16:08.952Z,68.46
2018-06-24T04:16:35.091Z,68.18
2018-06-24T04:17:01.221Z,68.46
2018-06-24T04:17:27.360Z,68.95
2018-06-24T04:17:53.532Z,69.04
2018-06-24T04:18:19.673Z,69.04
2018-06-24T04:18:45.807Z,68.85
2018-06-24T04:19:11.950Z,68.95
2018-06-24T04:19:38.093Z,68.85
2018-06-24T04:20:04.225Z,68.56
2018-06-24T04:20:30.367Z,68.62
2018-06-24T04:20:56.506Z,68.52
2018-06-24T04:21:22.646Z,68.85
2018-06-24T04:21:48.788Z,68.81
2018-06-24T04:22:14.965Z,68.85
2018-06-24T04:22:41.109Z,68.75
2018-06-24T04:23:07.248Z,68.62
2018-06-24T04:23:33.391Z,69.39
2018-06-24T04:23:59.521Z,69.39
2018-06-24T04:24:25.685Z,69.39
2018-06-24T04:24:51.818Z,69.29
2018-06-24T04:25:17.983Z,69.2
2018-06-24T04:25:44.214Z,69.48
2018-06-24T04:26:10.331Z,69.58
2018-06-24T04:26:36.492Z,69.77
2018-06-24T04:27:02.632Z,69.68
2018-06-24T04:27:28.778Z,69.68
2018-06-24T04:27:54.917Z,69.39
2018-06-24T04:28:21.053Z,69.2
2018-06-24T04:28:47.191Z,69.48
2018-06-24T04:29:13.327Z,69.48
2018-06-24T04:29:39.517Z,69.48
2018-06-24T04:30:05.664Z,69.29
2018-06-24T04:30:31.801Z,69.1
2018-06-24T04:30:57.940Z,69.1
2018-06-24T04:31:24.077Z,69.2
2018-06-24T04:31:50.216Z,69.39
2018-06-24T04:32:16.360Z,69.39
2018-06-24T04:32:42.492Z,69.2
2018-06-24T04:33:08.640Z,69.2
2018-06-24T04:33:34.783Z,69.2
2018-06-24T04:34:00.938Z,69.29
2018-06-24T04:34:27.078Z,69.1
2018-06-24T04:34:53.221Z,69.29
2018-06-24T04:35:19.364Z,69.2
2018-06-24T04:35:45.500Z,69.01
2018-06-24T04:36:11.667Z,69.39
2018-06-24T04:36:37.806Z,69.1
2018-06-24T04:37:03.944Z,69.29
2018-06-24T04:37:30.078Z,69.2
2018-06-24T04:37:56.240Z,69.58
2018-06-24T04:38:22.376Z,69.58
2018-06-24T04:38:48.508Z,69.48
2018-06-24T04:39:14.647Z,69.48
2018-06-24T04:39:40.788Z,69.2
2018-06-24T04:40:06.937Z,69.1
2018-06-24T04:40:33.080Z,69.2
2018-06-24T04:40:59.238Z,69.29
2018-06-24T04:41:25.368Z,69.13
2018-06-24T04:41:51.509Z,69.13
2018-06-24T04:42:17.643Z,69.39
2018-06-24T04:42:43.777Z,69.29
2018-06-24T04:43:09.945Z,69.29
2018-06-24T04:43:36.086Z,69.2
2018-06-24T04:44:02.245Z,69.29
2018-06-24T04:44:28.419Z,69.1
2018-06-24T04:44:54.549Z,69.01
2018-06-24T04:45:20.728Z,69.01
2018-06-24T04:45:46.865Z,69.1
2018-06-24T04:46:13.007Z,69.2
2018-06-24T04:46:39.157Z,69.2
2018-06-24T04:47:05.306Z,69.39
2018-06-24T04:47:31.448Z,69.29
2018-06-24T04:47:57.588Z,69.1
2018-06-24T04:48:23.728Z,69.1
2018-06-24T04:48:49.866Z,69.42
2018-06-24T04:49:16.011Z,69.52
2018-06-24T04:49:42.149Z,69.13
2018-06-24T04:50:08.296Z,69.39
2018-06-24T04:50:34.460Z,68.85
2018-06-24T04:51:00.598Z,68.85
2018-06-24T04:51:26.736Z,68.95
2018-06-24T04:51:52.912Z,69.04
2018-06-24T04:52:19.049Z,68.95
2018-06-24T04:52:45.185Z,68.85
2018-06-24T04:53:11.324Z,69.04
2018-06-24T04:53:37.468Z,68.75
2018-06-24T04:54:03.641Z,69.04
2018-06-24T04:54:29.809Z,68.66
2018-06-24T04:54:55.953Z,68.46
2018-06-24T04:55:22.093Z,68.37
2018-06-24T04:55:48.282Z,68.27
2018-06-24T04:56:14.418Z,68.46
2018-06-24T04:56:40.584Z,68.46
2018-06-24T04:57:06.722Z,68.46
2018-06-24T04:57:32.863Z,68.37
2018-06-24T04:57:59.022Z,68.27
2018-06-24T04:58:25.170Z,67.99
2018-06-24T04:58:51.353Z,67.99
2018-06-24T04:59:17.510Z,68.27
2018-06-24T04:59:43.651Z,67.99
2018-06-24T05:00:09.809Z,67.99
2018-06-24T05:00:35.947Z,68.18
2018-06-24T05:01:02.090Z,68.46
2018-06-24T05:01:28.224Z,68.08
2018-06-24T05:01:54.365Z,67.99
2018-06-24T05:02:20.509Z,67.89
2018-06-24T05:02:46.649Z,67.89
2018-06-24T05:03:12.795Z,67.5
2018-06-24T05:03:38.936Z,67.6
2018-06-24T05:04:05.082Z,67.5
2018-06-24T05:04:31.220Z,67.5
2018-06-24T05:04:57.360Z,67.6
2018-06-24T05:05:23.505Z,67.5
2018-06-24T05:05:49.646Z,67.6
2018-06-24T05:06:15.785Z,67.5
2018-06-24T05:06:41.937Z,67.41
2018-06-24T05:07:08.105Z,67.5
2018-06-24T05:07:34.250Z,67.6
2018-06-24T05:08:00.395Z,67.69
2018-06-24T05:08:26.549Z,67.79
2018-06-24T05:08:52.692Z,67.6
2018-06-24T05:09:18.858Z,67.99
2018-06-24T05:09:44.998Z,67.89
2018-06-24T05:10:11.140Z,68.12
2018-06-24T05:10:37.305Z,67.79
2018-06-24T05:11:03.461Z,67.41
2018-06-24T05:11:29.600Z,67.63
2018-06-24T05:11:55.741Z,67.63
2018-06-24T05:12:21.880Z,67.54
2018-06-24T05:12:48.026Z,67.22
2018-06-24T05:13:14.164Z,67.35
2018-06-24T05:13:40.308Z,67.35
2018-06-24T05:14:06.443Z,67.63
2018-06-24T05:14:32.577Z,67.63
2018-06-24T05:14:58.717Z,67.73
2018-06-24T05:15:24.854Z,67.54
2018-06-24T05:15:50.994Z,67.83
2018-06-24T05:16:17.185Z,67.16
2018-06-24T05:16:43.327Z,66.67
2018-06-24T05:17:09.471Z,67.25
2018-06-24T05:17:35.640Z,67.54
2018-06-24T05:18:01.774Z,67.63
2018-06-24T05:18:27.916Z,67.25
2018-06-24T05:18:54.053Z,67.54
2018-06-24T05:19:20.184Z,67.63
2018-06-24T05:19:46.327Z,67.83
2018-06-24T05:20:12.469Z,67.83
2018-06-24T05:20:38.605Z,68.4
2018-06-24T05:21:04.745Z,68.3
2018-06-24T05:21:30.888Z,68.3
2018-06-24T05:21:57.047Z,68.3
2018-06-24T05:22:23.180Z,68.3
2018-06-24T05:22:49.350Z,68.02
2018-06-24T05:23:15.491Z,67.44
2018-06-24T05:23:41.631Z,67.44
2018-06-24T05:24:07.770Z,67.63
2018-06-24T05:24:33.908Z,67.54
2018-06-24T05:25:00.047Z,67.54
2018-06-24T05:25:26.209Z,67.54
2018-06-24T05:25:52.375Z,67.63
2018-06-24T05:26:18.512Z,68.02
2018-06-24T05:26:44.670Z,68.21
2018-06-24T05:27:10.814Z,68.3
2018-06-24T05:27:37.028Z,68.21
2018-06-24T05:28:03.115Z,67.83
2018-06-24T05:28:29.283Z,67.83
2018-06-24T05:28:55.445Z,68.4
2018-06-24T05:29:21.582Z,67.83
2018-06-24T05:29:47.728Z,68.4
2018-06-24T05:30:13.867Z,68.4
2018-06-24T05:30:40.008Z,68.12
2018-06-24T05:31:06.136Z,67.83
2018-06-24T05:31:32.278Z,68.02
2018-06-24T05:31:58.418Z,67.54
2018-06-24T05:32:24.553Z,67.44
2018-06-24T05:32:50.719Z,67.44
2018-06-24T05:33:16.859Z,67.73
2018-06-24T05:33:43.027Z,67.73
2018-06-24T05:34:09.190Z,67.25
2018-06-24T05:34:35.351Z,67.44
2018-06-24T05:35:01.483Z,67.16
2018-06-24T05:35:27.649Z,67.25
2018-06-24T05:35:53.789Z,67.25
2018-06-24T05:36:19.921Z,67.44
2018-06-24T05:36:46.060Z,67.35
2018-06-24T05:37:12.226Z,67.44
2018-06-24T05:37:38.401Z,67.92
2018-06-24T05:38:04.540Z,67.44